createdAt,value
2022-09-06T00:01:15.318Z,20.00
2022-09-06T00:03:43.378Z,19.90
2022-09-06T00:06:15.924Z,19.90
2022-09-06T00:08:45.659Z,19.80
2022-09-06T00:11:15.013Z,19.70
2022-09-06T00:13:43.204Z,19.70
2022-09-06T00:16:14.423Z,19.60
2022-09-06T00:18:43.754Z,19.70
2022-09-06T00:21:23.956Z,19.70
2022-09-06T00:23:52.949Z,19.80
2022-09-06T00:26:21.912Z,19.80
2022-09-06T00:28:50.343Z,19.70
2022-09-06T00:31:24.611Z,19.70
2022-09-06T00:33:53.149Z,19.70
2022-09-06T00:36:22.053Z,19.70
2022-09-06T00:38:50.117Z,19.60
2022-09-06T00:41:18.019Z,19.60
2022-09-06T00:43:46.242Z,19.60
2022-09-06T00:46:21.034Z,19.60
2022-09-06T00:48:52.480Z,19.60
2022-09-06T00:51:22.204Z,19.60
2022-09-06T00:53:50.823Z,19.50
2022-09-06T00:56:18.980Z,19.60
2022-09-06T00:58:48.182Z,19.50
2022-09-06T01:01:16.315Z,19.40
2022-09-06T01:03:44.208Z,19.30
2022-09-06T01:06:26.469Z,19.20
2022-09-06T01:09:06.705Z,19.20
2022-09-06T01:12:05.816Z,19.20
2022-09-06T01:14:54.872Z,19.10
2022-09-06T01:17:41.652Z,19.10
2022-09-06T01:20:33.621Z,19.00
2022-09-06T01:23:37.611Z,19.00
2022-09-06T01:26:42.897Z,19.00
2022-09-06T01:34:08.502Z,19.00
2022-09-06T01:36:45.928Z,19.00
2022-09-06T01:39:27.093Z,19.00
2022-09-06T01:41:57.954Z,18.90
2022-09-06T01:44:27.929Z,18.80
2022-09-06T01:47:10.766Z,18.80
2022-09-06T01:49:56.791Z,18.70
2022-09-06T01:52:42.339Z,18.80
2022-09-06T01:55:28.061Z,18.80
2022-09-06T01:58:22.590Z,18.80
2022-09-06T02:01:19.247Z,18.90
2022-09-06T02:04:11.201Z,18.90
2022-09-06T02:06:50.975Z,18.90
2022-09-06T02:09:23.778Z,18.80
2022-09-06T02:11:59.688Z,18.80
2022-09-06T02:19:10.748Z,18.60
2022-09-06T02:21:42.637Z,18.60
2022-09-06T02:24:20.859Z,18.70
2022-09-06T02:26:49.941Z,18.70
2022-09-06T02:29:18.578Z,18.70
2022-09-06T02:31:55.705Z,18.70
2022-09-06T02:34:23.632Z,18.70
2022-09-06T02:36:51.847Z,18.60
2022-09-06T02:39:19.731Z,18.60
2022-09-06T02:41:48.346Z,18.60
2022-09-06T02:44:16.325Z,18.70
2022-09-06T02:51:18.934Z,18.70
2022-09-06T02:53:47.265Z,18.70
2022-09-06T02:56:15.255Z,18.70
2022-09-06T02:58:43.555Z,18.60
2022-09-06T03:01:11.521Z,18.50
2022-09-06T03:03:39.396Z,18.40
2022-09-06T03:06:07.433Z,18.30
2022-09-06T03:08:36.562Z,18.20
2022-09-06T03:11:04.662Z,18.10
2022-09-06T03:13:32.494Z,18.10
2022-09-06T03:16:01.514Z,18.10
2022-09-06T03:18:31.148Z,18.10
2022-09-06T03:20:59.797Z,18.10
2022-09-06T03:23:29.787Z,18.00
2022-09-06T03:25:58.001Z,17.90
2022-09-06T03:28:26.163Z,17.90
2022-09-06T03:30:54.070Z,18.00
2022-09-06T03:33:22.791Z,17.90
2022-09-06T03:35:57.312Z,17.90
2022-09-06T03:38:27.110Z,17.90
2022-09-06T03:40:55.554Z,17.90
2022-09-06T03:43:24.971Z,17.90
2022-09-06T03:45:57.208Z,17.90
2022-09-06T03:48:28.410Z,17.80
2022-09-06T03:50:58.009Z,17.80
2022-09-06T03:53:27.172Z,17.80
2022-09-06T03:55:57.612Z,17.80
2022-09-06T03:58:30.659Z,17.80
2022-09-06T04:01:03.692Z,17.80
2022-09-06T04:03:31.552Z,17.80
2022-09-06T04:05:59.495Z,17.80
2022-09-06T04:08:27.860Z,17.80
2022-09-06T04:10:57.945Z,17.80
2022-09-06T04:13:27.827Z,17.90
2022-09-06T04:15:55.955Z,17.90
2022-09-06T04:18:24.276Z,17.90
2022-09-06T04:20:54.552Z,18.00
2022-09-06T04:23:23.726Z,17.90
2022-09-06T04:25:53.780Z,17.90
2022-09-06T04:28:22.640Z,17.80
2022-09-06T04:35:23.312Z,17.90
2022-09-06T04:37:51.192Z,17.90
2022-09-06T04:40:18.996Z,17.80
2022-09-06T04:42:46.821Z,17.80
2022-09-06T04:45:14.788Z,17.80
2022-09-06T04:47:42.812Z,17.70
2022-09-06T04:50:10.753Z,17.60
2022-09-06T04:52:39.653Z,17.60
2022-09-06T04:55:07.864Z,17.60
2022-09-06T04:57:35.694Z,17.60
2022-09-06T05:00:04.305Z,17.60
2022-09-06T05:02:32.351Z,17.60
2022-09-06T05:05:00.247Z,17.80
2022-09-06T05:07:28.179Z,18.00
2022-09-06T05:09:55.977Z,18.30
2022-09-06T05:12:23.868Z,18.40
2022-09-06T05:14:51.688Z,18.50
2022-09-06T05:17:19.533Z,18.60
2022-09-06T05:19:47.946Z,18.60
2022-09-06T05:22:15.852Z,19.00
2022-09-06T05:24:44.058Z,19.40
2022-09-06T05:27:12.775Z,19.30
2022-09-06T05:29:40.620Z,19.40
2022-09-06T05:32:08.590Z,19.60
2022-09-06T05:34:36.457Z,19.90
2022-09-06T05:37:04.370Z,20.20
2022-09-06T05:39:32.328Z,20.10
2022-09-06T05:42:00.672Z,19.80
2022-09-06T05:44:28.541Z,20.10
2022-09-06T05:46:56.389Z,20.30
2022-09-06T05:49:24.253Z,20.30
2022-09-06T05:51:52.353Z,20.60
2022-09-06T05:54:20.253Z,20.90
2022-09-06T05:56:48.107Z,21.10
2022-09-06T05:59:16.251Z,21.20
2022-09-06T06:06:18.708Z,21.70
2022-09-06T06:08:46.906Z,21.90
2022-09-06T06:11:15.075Z,21.90
2022-09-06T06:13:43.583Z,22.20
2022-09-06T06:16:13.986Z,22.60
2022-09-06T06:23:15.180Z,21.90
2022-09-06T06:25:43.011Z,22.20
2022-09-06T06:28:29.602Z,22.40
2022-09-06T06:30:57.936Z,22.40
2022-09-06T06:33:25.761Z,21.90
2022-09-06T06:36:08.525Z,21.80
2022-09-06T06:38:38.176Z,22.00
2022-09-06T06:41:08.986Z,22.30
2022-09-06T06:43:37.960Z,23.00
2022-09-06T06:46:11.304Z,23.00
2022-09-06T06:48:43.778Z,22.90
2022-09-06T06:51:12.738Z,23.20
2022-09-06T06:53:40.583Z,23.50
2022-09-06T06:56:22.379Z,23.90
2022-09-06T06:58:52.633Z,24.40
2022-09-06T07:01:22.114Z,24.40
2022-09-06T07:03:50.545Z,25.00
2022-09-06T07:06:19.990Z,25.20
2022-09-06T07:08:48.700Z,25.40
2022-09-06T07:11:20.473Z,25.20
2022-09-06T07:13:50.947Z,24.80
2022-09-06T07:16:23.564Z,25.20
2022-09-06T07:18:53.076Z,25.00
2022-09-06T07:21:42.575Z,25.30
2022-09-06T07:24:10.775Z,24.20
2022-09-06T07:26:40.237Z,24.30
2022-09-06T07:29:08.671Z,24.80
2022-09-06T07:34:26.027Z,25.20
2022-09-06T07:36:55.433Z,25.10
2022-09-06T07:39:23.665Z,24.60
2022-09-06T07:41:51.870Z,24.90
2022-09-06T07:44:19.774Z,25.00
2022-09-06T07:46:47.664Z,25.00
2022-09-06T07:49:15.597Z,24.80
2022-09-06T07:51:43.906Z,24.40
2022-09-06T07:54:30.558Z,24.70
2022-09-06T07:56:59.002Z,24.90
2022-09-06T07:59:27.619Z,25.40
2022-09-06T08:01:55.716Z,25.30
2022-09-06T08:04:23.765Z,25.50
2022-09-06T08:09:40.075Z,25.90
2022-09-06T08:12:08.353Z,26.30
2022-09-06T08:14:36.449Z,26.80
2022-09-06T08:17:04.933Z,26.90
2022-09-06T08:19:32.918Z,26.90
2022-09-06T08:22:00.852Z,26.80
2022-09-06T08:24:28.894Z,26.90
2022-09-06T08:26:56.772Z,27.20
2022-09-06T08:29:26.024Z,27.60
2022-09-06T08:31:53.969Z,27.40
2022-09-06T08:34:21.964Z,27.70
2022-09-06T08:36:49.831Z,27.90
2022-09-06T08:39:17.757Z,27.90
2022-09-06T08:42:07.162Z,28.00
2022-09-06T08:44:58.803Z,27.80
2022-09-06T08:47:26.971Z,28.30
2022-09-06T08:50:01.160Z,28.40
2022-09-06T08:53:06.069Z,28.20
2022-09-06T08:55:55.102Z,28.40
2022-09-06T08:58:25.719Z,28.30
2022-09-06T09:01:12.728Z,27.40
2022-09-06T09:03:42.646Z,27.90
2022-09-06T09:06:11.120Z,28.60
2022-09-06T09:09:06.165Z,28.80
2022-09-06T09:11:36.225Z,29.00
2022-09-06T09:14:36.606Z,28.80
2022-09-06T09:17:11.094Z,29.10
2022-09-06T09:19:41.727Z,29.30
2022-09-06T09:22:18.638Z,29.50
2022-09-06T09:24:48.607Z,29.50
2022-09-06T09:27:42.501Z,28.60
2022-09-06T09:32:59.517Z,28.00
2022-09-06T09:35:30.307Z,28.80
2022-09-06T09:38:11.023Z,29.20
2022-09-06T09:40:42.926Z,29.20
2022-09-06T09:43:19.586Z,29.10
2022-09-06T09:46:14.583Z,29.20
2022-09-06T09:49:02.712Z,29.10
2022-09-06T09:51:32.378Z,29.00
2022-09-06T09:54:04.172Z,29.50
2022-09-06T09:56:53.978Z,29.70
2022-09-06T09:59:57.217Z,29.70
2022-09-06T10:02:27.584Z,29.80
2022-09-06T10:05:18.155Z,29.40
2022-09-06T10:07:46.061Z,28.40
2022-09-06T10:10:20.761Z,28.70
2022-09-06T10:17:50.826Z,28.30
2022-09-06T10:20:19.153Z,28.90
2022-09-06T10:26:55.868Z,28.50
2022-09-06T10:29:35.616Z,28.70
2022-09-06T10:32:31.119Z,28.70
2022-09-06T10:35:16.679Z,28.80
2022-09-06T10:38:23.977Z,28.70
2022-09-06T10:41:10.380Z,29.10
2022-09-06T10:44:06.350Z,29.60
2022-09-06T10:46:35.810Z,29.70
2022-09-06T10:49:03.729Z,29.90
2022-09-06T10:51:46.251Z,29.90
2022-09-06T10:54:16.840Z,30.10
2022-09-06T10:56:44.849Z,30.20
2022-09-06T11:02:26.683Z,30.30
2022-09-06T11:10:45.728Z,30.20
2022-09-06T11:13:17.211Z,30.00
2022-09-06T11:16:10.707Z,30.40
2022-09-06T11:23:48.536Z,30.00
2022-09-06T11:26:19.090Z,30.00
2022-09-06T11:28:53.416Z,30.10
2022-09-06T11:34:56.181Z,30.20
2022-09-06T11:37:28.189Z,29.90
2022-09-06T11:43:14.132Z,30.00
2022-09-06T11:45:41.875Z,29.80
2022-09-06T11:48:25.418Z,29.80
2022-09-06T11:51:03.450Z,29.70
2022-09-06T11:53:34.163Z,29.90
2022-09-06T11:56:02.116Z,30.20
2022-09-06T11:58:41.955Z,30.40
2022-09-06T12:01:16.704Z,30.30
2022-09-06T12:04:09.457Z,29.80
2022-09-06T12:06:43.948Z,29.90
2022-09-06T12:09:36.578Z,30.20
2022-09-06T12:16:14.132Z,30.70
2022-09-06T12:18:47.802Z,30.80
2022-09-06T12:21:38.804Z,30.90
2022-09-06T12:24:09.419Z,31.00
2022-09-06T12:26:54.476Z,31.10
2022-09-06T12:29:26.091Z,31.10
2022-09-06T12:32:05.892Z,31.10
2022-09-06T12:34:35.726Z,30.70
2022-09-06T12:37:10.676Z,30.60
2022-09-06T12:39:38.835Z,30.50
2022-09-06T12:42:12.775Z,30.70
2022-09-06T12:45:06.185Z,30.70
2022-09-06T12:47:37.379Z,30.60
2022-09-06T12:50:13.000Z,30.60
2022-09-06T12:52:47.349Z,30.50
2022-09-06T12:55:24.230Z,30.20
2022-09-06T12:57:58.228Z,30.30
2022-09-06T13:00:32.859Z,30.40
2022-09-06T13:03:19.790Z,30.90
2022-09-06T13:10:42.151Z,31.50
2022-09-06T13:13:10.533Z,31.00
2022-09-06T13:15:38.582Z,31.10
2022-09-06T13:18:31.179Z,31.00
2022-09-06T13:20:59.148Z,30.80
2022-09-06T13:23:27.117Z,30.80
2022-09-06T13:25:56.175Z,30.80
2022-09-06T13:28:29.633Z,30.70
2022-09-06T13:31:17.629Z,30.70
2022-09-06T13:33:55.095Z,30.80
2022-09-06T13:36:49.111Z,30.90
2022-09-06T13:39:49.654Z,31.10
2022-09-06T13:42:35.636Z,31.20
2022-09-06T13:45:19.922Z,31.10
2022-09-06T13:47:47.806Z,31.10
2022-09-06T13:50:16.797Z,31.20
2022-09-06T13:52:44.644Z,31.10
2022-09-06T13:55:18.417Z,31.10
2022-09-06T13:57:46.368Z,30.80
2022-09-06T14:00:14.817Z,30.30
2022-09-06T14:02:43.535Z,30.40
2022-09-06T14:05:12.043Z,30.50
2022-09-06T14:07:39.934Z,30.70
2022-09-06T14:10:08.070Z,30.80
2022-09-06T14:12:36.189Z,30.80
2022-09-06T14:15:05.155Z,30.70
2022-09-06T14:17:33.254Z,30.70
2022-09-06T14:20:01.171Z,30.60
2022-09-06T14:22:31.252Z,30.50
2022-09-06T14:24:59.144Z,30.40
2022-09-06T14:27:27.360Z,30.40
2022-09-06T14:29:55.354Z,30.40
2022-09-06T14:32:23.187Z,30.40
2022-09-06T14:34:50.961Z,30.40
2022-09-06T14:37:19.019Z,30.30
2022-09-06T14:39:46.970Z,30.30
2022-09-06T14:46:53.430Z,30.40
2022-09-06T14:49:21.700Z,30.20
2022-09-06T14:51:49.530Z,30.20
2022-09-06T14:54:17.376Z,30.10
2022-09-06T14:56:45.366Z,30.00
2022-09-06T14:59:13.305Z,30.10
2022-09-06T15:01:41.776Z,29.80
2022-09-06T15:04:11.233Z,29.70
2022-09-06T15:06:41.239Z,29.30
2022-09-06T15:09:11.547Z,29.20
2022-09-06T15:11:45.191Z,29.20
2022-09-06T15:14:22.621Z,28.90
2022-09-06T15:16:56.027Z,29.00
2022-09-06T15:19:25.811Z,29.00
2022-09-06T15:21:55.476Z,29.00
2022-09-06T15:24:24.997Z,28.90
2022-09-06T15:26:53.704Z,28.90
2022-09-06T15:29:22.635Z,28.90
2022-09-06T15:31:51.297Z,28.90
2022-09-06T15:34:21.308Z,28.90
2022-09-06T15:36:50.142Z,28.90
2022-09-06T15:39:18.659Z,28.90
2022-09-06T15:41:46.846Z,29.00
2022-09-06T15:44:16.979Z,28.90
2022-09-06T15:46:57.657Z,28.70
2022-09-06T15:49:28.651Z,28.60
2022-09-06T15:51:58.395Z,28.60
2022-09-06T15:55:41.712Z,28.60
2022-09-06T15:58:09.661Z,28.60
2022-09-06T16:00:37.661Z,28.50
2022-09-06T16:03:23.956Z,28.40
2022-09-06T16:06:27.257Z,28.40
2022-09-06T16:08:58.763Z,28.30
2022-09-06T16:12:17.084Z,28.40
2022-09-06T16:14:44.952Z,28.30
2022-09-06T16:17:12.798Z,28.20
2022-09-06T16:19:40.691Z,28.20
2022-09-06T16:22:08.646Z,28.10
2022-09-06T16:24:36.489Z,28.10
2022-09-06T16:27:04.391Z,28.10
2022-09-06T16:29:32.320Z,27.90
2022-09-06T16:32:00.703Z,27.90
2022-09-06T16:34:28.642Z,27.80
2022-09-06T16:36:57.177Z,27.90
2022-09-06T16:39:25.138Z,27.80
2022-09-06T16:41:53.129Z,27.60
2022-09-06T16:44:21.090Z,27.60
2022-09-06T16:46:49.963Z,27.60
2022-09-06T16:49:19.384Z,27.50
2022-09-06T16:51:49.089Z,27.50
2022-09-06T16:54:18.332Z,27.40
2022-09-06T16:56:46.310Z,27.30
2022-09-06T16:59:17.101Z,27.20
2022-09-06T17:01:45.725Z,27.00
2022-09-06T17:04:14.440Z,27.00
2022-09-06T17:06:44.683Z,26.90
2022-09-06T17:09:15.349Z,26.90
2022-09-06T17:11:43.347Z,26.90
2022-09-06T17:14:11.630Z,26.90
2022-09-06T17:16:58.188Z,26.90
2022-09-06T17:19:26.572Z,26.80
2022-09-06T17:21:54.472Z,26.70
2022-09-06T17:28:57.705Z,26.60
2022-09-06T17:31:26.287Z,26.50
2022-09-06T17:33:54.463Z,26.40
2022-09-06T17:36:30.494Z,26.30
2022-09-06T17:39:10.872Z,26.20
2022-09-06T17:41:41.961Z,26.00
2022-09-06T17:44:11.676Z,25.90
2022-09-06T17:46:52.028Z,25.80
2022-09-06T17:49:28.514Z,25.70
2022-09-06T17:51:57.002Z,25.50
2022-09-06T17:54:25.102Z,25.20
2022-09-06T17:56:53.126Z,25.00
2022-09-06T17:59:21.263Z,25.10
2022-09-06T18:01:49.111Z,25.00
2022-09-06T18:04:18.071Z,25.00
2022-09-06T18:06:46.890Z,25.00
2022-09-06T18:09:17.579Z,25.00
2022-09-06T18:11:47.110Z,24.90
2022-09-06T18:14:18.761Z,24.80
2022-09-06T18:16:49.136Z,24.50
2022-09-06T18:19:18.098Z,24.40
2022-09-06T18:21:46.747Z,24.40
2022-09-06T18:24:15.270Z,24.40
2022-09-06T18:26:43.885Z,24.20
2022-09-06T18:29:14.737Z,24.20
2022-09-06T18:31:43.608Z,24.10
2022-09-06T18:34:12.480Z,24.10
2022-09-06T18:36:40.921Z,24.00
2022-09-06T18:39:08.878Z,24.00
2022-09-06T18:41:55.456Z,23.90
2022-09-06T18:44:23.473Z,23.90
2022-09-06T18:46:55.761Z,23.90
2022-09-06T18:49:24.251Z,24.00
2022-09-06T18:51:52.284Z,23.90
2022-09-06T18:54:45.565Z,23.70
2022-09-06T18:57:15.461Z,23.60
2022-09-06T18:59:44.609Z,23.60
2022-09-06T19:02:14.341Z,23.50
2022-09-06T19:04:42.753Z,23.50
2022-09-06T19:07:10.940Z,23.50
2022-09-06T19:09:38.993Z,23.50
2022-09-06T19:12:07.344Z,23.50
2022-09-06T19:14:35.244Z,23.50
2022-09-06T19:17:03.291Z,23.50
2022-09-06T19:19:31.247Z,23.40
2022-09-06T19:21:59.233Z,23.40
2022-09-06T19:24:27.248Z,23.30
2022-09-06T19:26:55.692Z,23.20
2022-09-06T19:29:23.639Z,23.00
2022-09-06T19:31:52.242Z,22.90
2022-09-06T19:34:20.468Z,22.90
2022-09-06T19:36:50.083Z,22.90
2022-09-06T19:39:18.264Z,22.80
2022-09-06T19:41:47.647Z,22.80
2022-09-06T19:44:17.060Z,22.80
2022-09-06T19:46:47.011Z,22.80
2022-09-06T19:49:17.222Z,22.70
2022-09-06T19:51:46.593Z,22.60
2022-09-06T19:54:15.874Z,22.50
2022-09-06T19:56:44.815Z,22.50
2022-09-06T19:59:15.334Z,22.40
2022-09-06T20:01:46.794Z,22.40
2022-09-06T20:04:15.788Z,22.30
2022-09-06T20:06:43.840Z,22.20
2022-09-06T20:09:12.100Z,22.10
2022-09-06T20:11:41.296Z,22.00
2022-09-06T20:14:11.403Z,22.00
2022-09-06T20:16:42.171Z,21.90
2022-09-06T20:19:12.166Z,21.90
2022-09-06T20:21:40.206Z,22.00
2022-09-06T20:24:08.473Z,22.00
2022-09-06T20:26:36.367Z,22.00
2022-09-06T20:29:05.152Z,22.00
2022-09-06T20:31:34.359Z,22.00
2022-09-06T20:34:04.281Z,22.00
2022-09-06T20:36:32.479Z,22.00
2022-09-06T20:39:00.376Z,21.90
2022-09-06T20:41:28.548Z,21.80
2022-09-06T20:43:58.760Z,21.80
2022-09-06T20:46:32.298Z,21.70
2022-09-06T20:49:04.832Z,21.70
2022-09-06T20:51:34.551Z,21.70
2022-09-06T20:54:04.264Z,21.70
2022-09-06T20:56:34.736Z,21.70
2022-09-06T20:59:13.122Z,21.80
2022-09-06T21:01:46.107Z,21.80
2022-09-06T21:04:16.472Z,22.00
2022-09-06T21:06:45.934Z,22.00
2022-09-06T21:09:15.258Z,22.00
2022-09-06T21:11:43.864Z,21.90
2022-09-06T21:14:12.691Z,21.80
2022-09-06T21:16:41.326Z,21.70
2022-09-06T21:19:10.708Z,21.70
2022-09-06T21:21:39.237Z,21.60
2022-09-06T21:24:08.218Z,21.70
2022-09-06T21:26:36.413Z,21.60
2022-09-06T21:29:04.891Z,21.60
2022-09-06T21:31:36.263Z,21.50
2022-09-06T21:34:07.538Z,21.50
2022-09-06T21:36:37.194Z,21.40
2022-09-06T21:39:10.903Z,21.40
2022-09-06T21:41:40.404Z,21.40
2022-09-06T21:44:09.514Z,21.40
2022-09-06T21:46:39.054Z,21.30
2022-09-06T21:49:09.834Z,21.30
2022-09-06T21:51:37.926Z,21.30
2022-09-06T21:54:12.810Z,21.20
2022-09-06T21:56:44.946Z,21.10
2022-09-06T21:59:12.982Z,21.10
2022-09-06T22:01:43.171Z,21.00
2022-09-06T22:04:13.777Z,21.00
2022-09-06T22:06:41.716Z,21.00
2022-09-06T22:09:11.662Z,21.00
2022-09-06T22:11:42.466Z,20.90
2022-09-06T22:14:12.771Z,20.90
2022-09-06T22:16:41.177Z,20.80
2022-09-06T22:19:09.897Z,20.80
2022-09-06T22:21:38.853Z,20.90
2022-09-06T22:24:09.785Z,20.90
2022-09-06T22:26:39.078Z,21.10
2022-09-06T22:29:09.292Z,21.10
2022-09-06T22:31:37.949Z,21.10
2022-09-06T22:34:06.189Z,21.10
2022-09-06T22:36:34.415Z,21.00
2022-09-06T22:39:02.388Z,20.90
2022-09-06T22:41:32.917Z,20.90
2022-09-06T22:44:02.367Z,20.90
2022-09-06T22:46:30.997Z,20.90
2022-09-06T22:48:59.430Z,20.80
2022-09-06T22:51:27.364Z,20.80
2022-09-06T22:53:55.366Z,20.70
2022-09-06T22:56:23.450Z,20.70
2022-09-06T22:58:51.313Z,20.60
2022-09-06T23:01:19.204Z,20.70
2022-09-06T23:03:48.171Z,20.70
2022-09-06T23:06:16.366Z,20.60
2022-09-06T23:08:44.271Z,20.60
2022-09-06T23:11:15.347Z,20.60
2022-09-06T23:13:43.993Z,20.60
2022-09-06T23:16:15.035Z,20.60
2022-09-06T23:18:43.256Z,20.70
2022-09-06T23:21:13.641Z,20.70
2022-09-06T23:23:42.268Z,20.70
2022-09-06T23:26:13.621Z,20.70
2022-09-06T23:28:41.993Z,20.70
2022-09-06T23:31:12.544Z,20.70
2022-09-06T23:33:41.832Z,20.70
2022-09-06T23:36:12.378Z,20.70
2022-09-06T23:38:41.353Z,20.70
2022-09-06T23:41:10.379Z,20.70
2022-09-06T23:43:38.890Z,20.60
2022-09-06T23:46:08.096Z,20.60
2022-09-06T23:48:36.389Z,20.60
2022-09-06T23:51:04.447Z,20.60
2022-09-06T23:53:33.266Z,20.60
2022-09-06T23:56:01.823Z,20.60
2022-09-06T23:58:31.090Z,20.60
